Aérodrome :
LOGIN :

S'inscrire | Disclaimer

   EN    FR    IT 

 










Légende :    VFR   VFR Marginal   IFR   IFR Intensif   IFR Très Intensif
Visi : 
Plafond : 
>= 8 km
>= 3000ft
5 à 8 km
1000 à 3000 ft
1500m à 5 km
500 à 1000 ft
800 à 1500m
200 à 500 ft
< 800m
< 200 ft
Symboles :   Orages  Brouillard  Fortes neiges  Fortes précipitations  Vent > 20 kt
SIGMETs :   Divers  Orages  Givrage  Turbulence  Onde Orograph.  Cendres Volcan.







- Altitude de l'aérodrome : 1568 ft


ETSB - Büchel AB

DERNIER METAR :
  • 231120Z 08009KT 9000 SCT012 BKN200 08/05 Q1015 BLU+BLU+

METARs EXPIRÉS :
  • 231042Z 08009KT 8000 BKN008 06/04 Q1015 GRN GRN BECMG WHT
  • 231020Z 08009KT 6000 BKN007 06/04 Q1015 GRN GRN BECMG WHT
  • 231010Z 07009KT 5000 BR BKN005 05/04 Q1014 YLO YLO BECMG GRN
  • 230920Z 09010KT 3200 BR BKN004 05/04 Q1014 YLO YLO BECMG GRN

TAF TAF ETSB
Valide du 23 à 12h jusqu'au 23 à 21h UTC


231125Z 2312/2321 09010KT 9000 NSW FEW012 SCT220 BY ETGL
Pas de NOTAMs connus pour ce terrain.



MET'MAP, la Météo Aéronautique d'un coup d'oeil ! - Copyright ORBIFLY Décembre 2007 - Disclaimer

ORBIFLY MET'MAP TEAM :

Programmation & Développement : Alexandra Zaïnal
Conception & Développement : Baudouin d'Aumeries
Co-Programmation & Développement : Marc-Olivier Méhu
Soutien technique & logistique : Manuel Goepfert

Contact : metmap@orbifly.com




SOURCES & CREDITS :

   NOAA